createdAt,value
2024-03-12T00:01:01.763Z,5.90
2024-03-12T00:03:28.848Z,4.82
2024-03-12T00:05:56.649Z,4.53
2024-03-12T00:08:23.051Z,4.68
2024-03-12T00:10:49.503Z,4.18
2024-03-12T00:13:16.230Z,4.30
2024-03-12T00:15:42.692Z,4.32
2024-03-12T00:18:09.218Z,3.90
2024-03-12T00:20:35.948Z,4.93
2024-03-12T00:23:03.197Z,5.38
2024-03-12T00:25:31.678Z,5.13
2024-03-12T00:27:58.242Z,5.05
2024-03-12T00:30:29.093Z,5.00
2024-03-12T00:32:57.984Z,5.18
2024-03-12T00:35:25.909Z,4.60
2024-03-12T00:37:52.950Z,5.00
2024-03-12T00:40:21.345Z,4.60
2024-03-12T00:42:48.354Z,4.95
2024-03-12T00:45:15.273Z,5.40
2024-03-12T00:47:42.743Z,5.15
2024-03-12T00:50:13.286Z,4.90
2024-03-12T00:52:41.244Z,5.25
2024-03-12T00:55:10.438Z,5.72
2024-03-12T00:57:39.490Z,6.07
2024-03-12T01:00:17.627Z,5.43
2024-03-12T01:02:49.753Z,5.50
2024-03-12T01:05:21.875Z,5.57
2024-03-12T01:07:53.619Z,5.97
2024-03-12T01:10:21.680Z,5.70
2024-03-12T01:12:49.989Z,5.57
2024-03-12T01:15:16.803Z,6.32
2024-03-12T01:17:43.436Z,5.63
2024-03-12T01:20:10.907Z,6.53
2024-03-12T01:22:39.001Z,6.18
2024-03-12T01:25:07.109Z,6.15
2024-03-12T01:27:40.121Z,6.40
2024-03-12T01:30:08.154Z,6.00
2024-03-12T01:32:35.678Z,6.97
2024-03-12T01:35:04.491Z,6.93
2024-03-12T01:37:30.934Z,7.20
2024-03-12T01:39:57.501Z,7.70
2024-03-12T01:42:24.228Z,9.10
2024-03-12T01:44:53.652Z,10.43
2024-03-12T01:47:21.317Z,11.30
2024-03-12T01:49:51.022Z,10.93
2024-03-12T01:52:18.848Z,10.30
2024-03-12T01:54:45.571Z,9.85
2024-03-12T01:57:12.533Z,9.57
2024-03-12T01:59:38.952Z,8.98
2024-03-12T02:02:05.440Z,9.07
2024-03-12T02:04:31.879Z,9.63
2024-03-12T02:06:59.044Z,8.93
2024-03-12T02:09:26.311Z,9.30
2024-03-12T02:11:52.750Z,9.38
2024-03-12T02:14:19.192Z,9.57
2024-03-12T02:16:45.614Z,9.30
2024-03-12T02:19:12.079Z,8.60
2024-03-12T02:21:38.545Z,9.52
2024-03-12T02:24:05.026Z,8.75
2024-03-12T02:26:32.494Z,8.15
2024-03-12T02:28:58.982Z,8.13
2024-03-12T02:31:25.376Z,8.20
2024-03-12T02:33:53.250Z,8.65
2024-03-12T02:36:21.352Z,9.30
2024-03-12T02:38:47.773Z,10.07
2024-03-12T02:41:14.179Z,9.50
2024-03-12T02:43:42.241Z,8.60
2024-03-12T02:46:12.091Z,8.27
2024-03-12T02:48:38.791Z,8.30
2024-03-12T02:51:08.343Z,8.45
2024-03-12T02:53:35.333Z,8.77
2024-03-12T02:56:02.192Z,8.70
2024-03-12T02:58:28.584Z,9.10
2024-03-12T03:00:55.173Z,8.88
2024-03-12T03:03:24.869Z,9.60
2024-03-12T03:05:51.327Z,9.57
2024-03-12T03:08:18.465Z,9.27
2024-03-12T03:10:45.783Z,8.90
2024-03-12T03:13:12.377Z,9.60
2024-03-12T03:15:39.691Z,8.82
2024-03-12T03:18:07.006Z,8.55
2024-03-12T03:20:33.415Z,8.95
2024-03-12T03:22:59.814Z,8.70
2024-03-12T03:25:26.207Z,9.05
2024-03-12T03:27:52.660Z,8.63
2024-03-12T03:30:20.035Z,8.52
2024-03-12T03:32:47.066Z,9.20
2024-03-12T03:35:14.697Z,8.77
2024-03-12T03:37:42.758Z,7.35
2024-03-12T03:40:12.098Z,8.82
2024-03-12T03:42:39.519Z,9.65
2024-03-12T03:45:06.561Z,9.63
2024-03-12T03:47:35.894Z,10.80
2024-03-12T03:50:09.643Z,11.30
2024-03-12T03:52:37.801Z,12.07
2024-03-12T03:55:05.115Z,13.15
2024-03-12T03:57:31.626Z,14.05
2024-03-12T03:59:58.132Z,14.27
2024-03-12T04:02:24.561Z,15.55
2024-03-12T04:04:51.109Z,15.88
2024-03-12T04:07:17.498Z,18.33
2024-03-12T04:09:43.915Z,18.02
2024-03-12T04:12:10.389Z,19.23
2024-03-12T04:14:36.761Z,17.95
2024-03-12T04:17:03.292Z,17.45
2024-03-12T04:19:33.240Z,18.33
2024-03-12T04:22:00.062Z,19.25
2024-03-12T04:24:26.983Z,19.02
2024-03-12T04:26:53.851Z,20.55
2024-03-12T04:29:20.357Z,21.30
2024-03-12T04:31:46.781Z,22.40
2024-03-12T04:34:13.306Z,23.77
2024-03-12T04:36:39.884Z,24.33
2024-03-12T04:39:32.031Z,25.23
2024-03-12T04:42:00.404Z,26.45
2024-03-12T04:44:26.821Z,28.35
2024-03-12T04:46:53.216Z,27.17
2024-03-12T04:49:19.815Z,29.40
2024-03-12T04:51:46.223Z,30.80
2024-03-12T04:54:12.721Z,32.72
2024-03-12T04:56:39.095Z,34.35
2024-03-12T04:59:05.595Z,32.60
2024-03-12T05:01:32.077Z,33.15
2024-03-12T05:04:04.355Z,33.22
2024-03-12T05:06:34.680Z,32.80
2024-03-12T05:09:01.180Z,32.28
2024-03-12T05:11:27.613Z,34.58
2024-03-12T05:13:54.211Z,33.58
2024-03-12T05:16:26.039Z,33.28
2024-03-12T05:18:52.989Z,34.85
2024-03-12T05:21:19.406Z,34.65
2024-03-12T05:23:45.795Z,36.03
2024-03-12T05:26:12.707Z,35.15
2024-03-12T05:28:39.837Z,35.65
2024-03-12T05:31:08.866Z,35.53
2024-03-12T05:33:39.584Z,38.70
2024-03-12T05:36:10.765Z,38.63
2024-03-12T05:38:45.774Z,39.03
2024-03-12T05:41:12.494Z,39.70
2024-03-12T05:43:57.453Z,39.58
2024-03-12T05:46:43.546Z,39.75
2024-03-12T05:49:10.088Z,40.03
2024-03-12T05:51:38.863Z,39.97
2024-03-12T05:54:08.628Z,41.13
2024-03-12T05:56:38.485Z,39.13
2024-03-12T05:59:05.814Z,39.30
2024-03-12T06:01:32.636Z,38.90
2024-03-12T06:03:59.661Z,39.08
2024-03-12T06:06:26.136Z,39.00
2024-03-12T06:08:52.529Z,38.28
2024-03-12T06:11:19.017Z,35.03
2024-03-12T06:13:45.483Z,35.78
2024-03-12T06:16:12.395Z,35.58
2024-03-12T06:18:39.142Z,34.35
2024-03-12T06:21:07.434Z,34.30
2024-03-12T06:23:33.922Z,34.15
2024-03-12T06:26:00.370Z,33.10
2024-03-12T06:28:28.916Z,31.35
2024-03-12T06:30:56.578Z,31.33
2024-03-12T06:33:23.133Z,30.88
2024-03-12T06:35:49.630Z,29.95
2024-03-12T06:38:16.801Z,30.13
2024-03-12T06:40:44.233Z,29.08
2024-03-12T06:43:14.402Z,29.02
2024-03-12T06:45:41.699Z,30.80
2024-03-12T06:48:08.427Z,30.20
2024-03-12T06:50:35.025Z,30.30
2024-03-12T06:53:01.496Z,29.50
2024-03-12T06:55:28.392Z,28.55
2024-03-12T06:58:00.830Z,27.95
2024-03-12T07:03:10.582Z,25.42
2024-03-12T07:05:38.473Z,25.35
2024-03-12T07:08:08.833Z,25.83
2024-03-12T07:10:38.045Z,26.02
2024-03-12T07:13:05.941Z,27.55
2024-03-12T07:15:35.389Z,26.20
2024-03-12T07:18:03.645Z,27.00
2024-03-12T07:20:30.859Z,28.40
2024-03-12T07:23:00.192Z,28.42
2024-03-12T07:25:26.912Z,27.98
2024-03-12T07:27:57.162Z,27.92
2024-03-12T07:30:25.716Z,29.35
2024-03-12T07:32:52.821Z,29.13
2024-03-12T07:35:19.314Z,28.88
2024-03-12T07:37:47.064Z,28.20
2024-03-12T07:40:16.712Z,29.30
2024-03-12T07:42:44.060Z,28.55
2024-03-12T07:45:11.778Z,29.75
2024-03-12T07:47:40.712Z,31.15
2024-03-12T07:50:12.654Z,30.17
2024-03-12T07:52:39.166Z,30.40
2024-03-12T07:55:07.059Z,29.42
2024-03-12T07:57:33.713Z,30.75
2024-03-12T08:00:00.683Z,31.85
2024-03-12T08:02:27.359Z,32.28
2024-03-12T08:04:53.773Z,33.10
2024-03-12T08:07:20.561Z,32.47
2024-03-12T08:09:50.351Z,32.97
2024-03-12T08:12:18.137Z,33.72
2024-03-12T08:14:45.288Z,32.17
2024-03-12T08:17:15.030Z,34.90
2024-03-12T08:19:43.755Z,33.28
2024-03-12T08:22:10.536Z,34.00
2024-03-12T08:24:40.774Z,32.08
2024-03-12T08:27:08.029Z,32.85
2024-03-12T08:29:34.565Z,35.45
2024-03-12T08:32:01.594Z,34.33
2024-03-12T08:34:28.273Z,34.05
2024-03-12T08:36:56.484Z,33.60
2024-03-12T08:39:23.243Z,35.20
2024-03-12T08:41:49.716Z,34.97
2024-03-12T08:44:16.203Z,34.45
2024-03-12T08:46:42.632Z,34.65
2024-03-12T08:49:12.048Z,33.38
2024-03-12T08:51:40.457Z,33.97
2024-03-12T08:54:07.717Z,33.58
2024-03-12T08:56:36.507Z,32.25
2024-03-12T08:59:04.613Z,33.88
2024-03-12T09:01:32.812Z,31.10
2024-03-12T09:03:59.317Z,30.60
2024-03-12T09:06:25.834Z,30.63
2024-03-12T09:08:52.293Z,28.95
2024-03-12T09:11:18.925Z,29.08
2024-03-12T09:13:46.574Z,27.58
2024-03-12T09:16:13.947Z,28.10
2024-03-12T09:18:43.304Z,26.30
2024-03-12T09:21:16.587Z,26.85
2024-03-12T09:23:53.444Z,24.15
2024-03-12T09:26:28.709Z,24.67
2024-03-12T09:28:55.153Z,23.02
2024-03-12T09:31:21.612Z,23.48
2024-03-12T09:33:48.115Z,24.45
2024-03-12T09:36:15.664Z,23.40
2024-03-12T09:38:44.902Z,23.05
2024-03-12T09:41:13.458Z,22.98
2024-03-12T09:43:40.596Z,20.63
2024-03-12T09:46:07.117Z,22.25
2024-03-12T09:48:34.190Z,20.73
2024-03-12T09:51:00.780Z,20.05
2024-03-12T09:53:27.562Z,20.38
2024-03-12T09:55:54.848Z,18.38
2024-03-12T09:58:21.332Z,19.17
2024-03-12T10:00:47.922Z,18.27
2024-03-12T10:03:17.658Z,16.95
2024-03-12T10:05:44.528Z,18.58
2024-03-12T10:08:15.640Z,17.50
2024-03-12T10:10:44.177Z,17.88
2024-03-12T10:13:17.662Z,17.30
2024-03-12T10:16:04.393Z,17.65
2024-03-12T10:18:32.089Z,18.13
2024-03-12T10:20:59.864Z,17.23
2024-03-12T10:23:28.171Z,17.23
2024-03-12T10:26:17.400Z,16.60
2024-03-12T10:28:51.543Z,17.05
2024-03-12T10:31:21.075Z,16.42
2024-03-12T10:33:50.440Z,14.23
2024-03-12T10:36:30.933Z,14.43
2024-03-12T10:38:57.403Z,14.10
2024-03-12T10:41:23.820Z,14.20
2024-03-12T10:43:51.209Z,14.27
2024-03-12T10:46:18.704Z,13.02
2024-03-12T10:48:47.254Z,13.68
2024-03-12T10:51:16.309Z,12.90
2024-03-12T10:53:44.496Z,12.48
2024-03-12T10:56:15.192Z,12.75
2024-03-12T10:58:47.787Z,11.80
2024-03-12T11:01:16.121Z,9.18
2024-03-12T11:03:43.971Z,11.77
2024-03-12T11:06:10.566Z,11.90
2024-03-12T11:08:39.775Z,13.18
2024-03-12T11:11:09.846Z,13.18
2024-03-12T11:13:36.469Z,12.80
2024-03-12T11:16:14.608Z,12.30
2024-03-12T11:18:41.580Z,13.40
2024-03-12T11:21:12.503Z,11.48
2024-03-12T11:23:41.347Z,12.50
2024-03-12T11:26:07.917Z,12.95
2024-03-12T11:28:48.288Z,11.82
2024-03-12T11:31:14.756Z,11.52
2024-03-12T11:33:43.186Z,11.40
2024-03-12T11:36:10.361Z,11.60
2024-03-12T11:38:37.342Z,11.80
2024-03-12T11:41:04.626Z,12.30
2024-03-12T11:43:42.110Z,12.32
2024-03-12T11:46:10.155Z,12.25
2024-03-12T11:48:40.035Z,12.93
2024-03-12T11:51:10.144Z,13.05
2024-03-12T11:53:37.676Z,13.10
2024-03-12T11:56:08.962Z,12.27
2024-03-12T12:01:11.564Z,13.27
2024-03-12T12:03:38.438Z,13.65
2024-03-12T12:06:05.075Z,13.18
2024-03-12T12:08:34.059Z,13.50
2024-03-12T12:11:02.441Z,13.88
2024-03-12T12:13:30.565Z,14.35
2024-03-12T12:15:58.230Z,15.57
2024-03-12T12:18:26.910Z,16.05
2024-03-12T12:20:54.489Z,15.48
2024-03-12T12:23:21.940Z,16.77
2024-03-12T12:25:50.918Z,16.25
2024-03-12T12:28:19.334Z,16.25
2024-03-12T12:30:45.930Z,15.73
2024-03-12T12:33:14.307Z,16.30
2024-03-12T12:35:42.795Z,15.75
2024-03-12T12:38:10.864Z,15.93
2024-03-12T12:40:40.933Z,15.70
2024-03-12T12:43:07.451Z,16.13
2024-03-12T12:45:34.880Z,16.45
2024-03-12T12:48:02.562Z,15.73
2024-03-12T12:50:31.066Z,15.85
2024-03-12T12:53:02.429Z,16.88
2024-03-12T12:55:31.040Z,16.35
2024-03-12T12:58:01.890Z,16.73
2024-03-12T13:00:28.831Z,15.15
2024-03-12T13:03:15.997Z,15.77
2024-03-12T13:05:42.666Z,16.23
2024-03-12T13:08:30.481Z,16.50
2024-03-12T13:10:59.555Z,16.42
2024-03-12T13:13:26.914Z,15.60
2024-03-12T13:15:53.435Z,15.65
2024-03-12T13:18:22.958Z,16.95
2024-03-12T13:20:50.377Z,14.48
2024-03-12T13:23:17.529Z,14.35
2024-03-12T13:25:46.337Z,14.32
2024-03-12T13:28:15.949Z,14.75
2024-03-12T13:30:43.250Z,14.43
2024-03-12T13:33:10.022Z,14.52
2024-03-12T13:35:36.455Z,15.13
2024-03-12T13:38:02.937Z,14.70
2024-03-12T13:40:30.563Z,14.38
2024-03-12T13:42:57.446Z,13.15
2024-03-12T13:45:24.042Z,12.60
2024-03-12T13:47:50.509Z,10.90
2024-03-12T13:50:16.946Z,10.70
2024-03-12T13:52:43.670Z,10.27
2024-03-12T13:55:12.380Z,10.57
2024-03-12T13:57:39.855Z,10.75
2024-03-12T14:00:11.081Z,11.10
2024-03-12T14:02:37.719Z,11.05
2024-03-12T14:05:06.029Z,11.82
2024-03-12T14:07:33.350Z,14.13
2024-03-12T14:10:00.379Z,16.20
2024-03-12T14:12:26.954Z,13.90
2024-03-12T14:14:53.803Z,12.68
2024-03-12T14:17:21.371Z,12.32
2024-03-12T14:19:47.851Z,12.65
2024-03-12T14:22:14.326Z,12.90
2024-03-12T14:24:40.821Z,14.02
2024-03-12T14:27:07.277Z,15.07
2024-03-12T14:29:33.761Z,14.55
2024-03-12T14:32:01.419Z,16.98
2024-03-12T14:34:29.593Z,17.45
2024-03-12T14:36:56.275Z,15.88
2024-03-12T14:39:24.211Z,15.65
2024-03-12T14:41:51.874Z,16.52
2024-03-12T14:44:18.353Z,17.65
2024-03-12T14:46:46.540Z,20.10
2024-03-12T14:49:16.349Z,17.83
2024-03-12T14:51:42.874Z,15.15
2024-03-12T14:54:09.447Z,17.42
2024-03-12T14:56:35.859Z,16.02
2024-03-12T14:59:04.756Z,19.23
2024-03-12T15:01:31.262Z,17.20
2024-03-12T15:03:58.307Z,17.67
2024-03-12T15:06:24.756Z,15.68
2024-03-12T15:08:51.182Z,16.60
2024-03-12T15:11:17.714Z,14.82
2024-03-12T15:13:44.429Z,14.38
2024-03-12T15:16:10.893Z,13.65
2024-03-12T15:18:38.120Z,15.88
2024-03-12T15:21:06.211Z,14.40
2024-03-12T15:23:32.653Z,14.80
2024-03-12T15:25:59.094Z,14.35
2024-03-12T15:28:25.719Z,15.05
2024-03-12T15:30:52.549Z,14.32
2024-03-12T15:33:19.441Z,13.73
2024-03-12T15:35:46.594Z,14.70
2024-03-12T15:38:13.117Z,13.73
2024-03-12T15:40:40.074Z,15.35
2024-03-12T15:43:06.910Z,15.77
2024-03-12T15:45:33.653Z,15.52
2024-03-12T15:48:01.609Z,16.13
2024-03-12T15:50:28.396Z,16.80
2024-03-12T15:52:55.124Z,16.88
2024-03-12T15:55:22.974Z,16.92
2024-03-12T15:57:49.574Z,16.55
2024-03-12T16:00:16.290Z,17.35
2024-03-12T16:02:43.320Z,16.10
2024-03-12T16:05:09.819Z,17.98
2024-03-12T16:07:36.721Z,17.92
2024-03-12T16:10:05.267Z,20.88
2024-03-12T16:12:32.082Z,20.38
2024-03-12T16:14:58.549Z,19.83
2024-03-12T16:17:25.385Z,20.20
2024-03-12T16:19:51.807Z,19.10
2024-03-12T16:22:18.350Z,18.80
2024-03-12T16:24:44.928Z,20.35
2024-03-12T16:27:11.917Z,20.23
2024-03-12T16:29:38.474Z,21.65
2024-03-12T16:32:08.608Z,21.08
2024-03-12T16:34:35.082Z,22.63
2024-03-12T16:37:02.872Z,24.85
2024-03-12T16:39:29.893Z,23.75
2024-03-12T16:41:59.336Z,23.30
2024-03-12T16:44:25.756Z,22.33
2024-03-12T16:46:55.372Z,23.73
2024-03-12T16:49:22.810Z,23.67
2024-03-12T16:51:49.709Z,25.27
2024-03-12T16:54:17.147Z,24.65
2024-03-12T16:56:45.578Z,23.80
2024-03-12T16:59:12.485Z,20.95
2024-03-12T17:01:39.306Z,24.05
2024-03-12T17:04:06.134Z,24.35
2024-03-12T17:06:33.773Z,23.88
2024-03-12T17:09:02.313Z,23.75
2024-03-12T17:11:29.080Z,24.23
2024-03-12T17:13:57.071Z,24.00
2024-03-12T17:16:27.048Z,24.25
2024-03-12T17:18:56.860Z,24.90
2024-03-12T17:21:28.673Z,24.35
2024-03-12T17:23:55.474Z,30.27
2024-03-12T17:26:22.485Z,28.38
2024-03-12T17:28:50.464Z,28.00
2024-03-12T17:31:17.973Z,25.92
2024-03-12T17:33:44.972Z,26.30
2024-03-12T17:36:18.492Z,25.55
2024-03-12T17:38:49.918Z,25.88
2024-03-12T17:41:17.357Z,26.73
2024-03-12T17:43:43.941Z,26.73
2024-03-12T17:46:13.852Z,25.10
2024-03-12T17:48:44.602Z,26.05
2024-03-12T17:51:12.005Z,26.55
2024-03-12T17:53:39.036Z,27.50
2024-03-12T17:56:13.956Z,26.65
2024-03-12T17:58:40.630Z,26.15
2024-03-12T18:01:07.485Z,27.77
2024-03-12T18:03:34.198Z,28.40
2024-03-12T18:06:04.460Z,28.92
2024-03-12T18:08:36.589Z,28.60
2024-03-12T18:11:04.496Z,28.77
2024-03-12T18:13:31.162Z,27.40
2024-03-12T18:15:57.721Z,27.60
2024-03-12T18:18:24.490Z,27.20
2024-03-12T18:20:51.945Z,27.17
2024-03-12T18:23:18.380Z,26.88
2024-03-12T18:25:44.762Z,26.90
2024-03-12T18:28:11.411Z,29.00
2024-03-12T18:30:38.075Z,26.83
2024-03-12T18:33:05.084Z,25.67
2024-03-12T18:35:31.538Z,28.10
2024-03-12T18:37:57.965Z,26.95
2024-03-12T18:40:24.503Z,28.80
2024-03-12T18:42:51.840Z,26.85
2024-03-12T18:45:23.670Z,27.35
2024-03-12T18:47:56.117Z,27.65
2024-03-12T18:52:52.376Z,26.27
2024-03-12T18:55:19.345Z,25.90
2024-03-12T18:57:46.803Z,25.33
2024-03-12T19:00:20.727Z,26.73
2024-03-12T19:02:48.477Z,25.25
2024-03-12T19:05:17.993Z,25.08
2024-03-12T19:07:49.923Z,25.73
2024-03-12T19:10:16.928Z,25.10
2024-03-12T19:12:43.671Z,24.48
2024-03-12T19:15:11.917Z,25.50
2024-03-12T19:17:41.242Z,26.02
2024-03-12T19:20:15.643Z,26.15
2024-03-12T19:22:43.755Z,25.73
2024-03-12T19:25:12.099Z,24.58
2024-03-12T19:27:39.292Z,27.27
2024-03-12T19:30:06.806Z,27.10
2024-03-12T19:32:34.592Z,26.15
2024-03-12T19:35:02.785Z,26.48
2024-03-12T19:37:33.616Z,26.25
2024-03-12T19:40:00.695Z,26.60
2024-03-12T19:42:27.222Z,28.65
2024-03-12T19:44:54.119Z,27.73
2024-03-12T19:47:21.714Z,26.92
2024-03-12T19:49:48.208Z,26.45
2024-03-12T19:52:14.920Z,27.70
2024-03-12T19:54:42.041Z,27.33
2024-03-12T19:57:09.386Z,27.58
2024-03-12T19:59:35.792Z,28.00
2024-03-12T20:02:05.668Z,27.73
2024-03-12T20:04:32.098Z,27.25
2024-03-12T20:06:58.535Z,27.48
2024-03-12T20:09:24.962Z,26.95
2024-03-12T20:11:51.523Z,27.83
2024-03-12T20:14:19.782Z,27.58
2024-03-12T20:16:46.523Z,26.50
2024-03-12T20:19:17.302Z,27.35
2024-03-12T20:21:45.996Z,26.48
2024-03-12T20:24:13.721Z,25.38
2024-03-12T20:26:41.059Z,27.10
2024-03-12T20:29:08.904Z,27.45
2024-03-12T20:31:36.226Z,28.02
2024-03-12T20:34:04.441Z,28.33
2024-03-12T20:36:31.535Z,27.40
2024-03-12T20:39:00.786Z,27.85
2024-03-12T20:41:27.301Z,28.42
2024-03-12T20:43:53.932Z,28.20
2024-03-12T20:46:22.017Z,27.42
2024-03-12T20:48:48.587Z,28.48
2024-03-12T20:51:15.416Z,30.13
2024-03-12T20:53:42.921Z,29.60
2024-03-12T20:56:09.668Z,29.17
2024-03-12T20:58:36.178Z,30.48
2024-03-12T21:01:02.727Z,28.98
2024-03-12T21:03:32.139Z,31.75
2024-03-12T21:05:58.538Z,30.23
2024-03-12T21:08:24.927Z,30.42
2024-03-12T21:10:51.327Z,29.75
2024-03-12T21:13:18.405Z,30.75
2024-03-12T21:15:45.468Z,30.77
2024-03-12T21:18:12.915Z,30.67
2024-03-12T21:20:39.373Z,30.45
2024-03-12T21:23:08.994Z,30.23
2024-03-12T21:25:35.515Z,30.27
2024-03-12T21:28:02.110Z,30.25
2024-03-12T21:30:28.949Z,31.02
2024-03-12T21:32:56.510Z,28.92
2024-03-12T21:35:24.776Z,28.70
2024-03-12T21:37:52.617Z,29.50
2024-03-12T21:40:20.396Z,31.20
2024-03-12T21:42:47.510Z,29.67
2024-03-12T21:45:16.399Z,31.77
2024-03-12T21:47:45.013Z,31.88
2024-03-12T21:50:16.624Z,32.05
2024-03-12T21:52:43.462Z,31.33
2024-03-12T21:55:11.373Z,30.67
2024-03-12T21:57:39.511Z,29.90
2024-03-12T22:00:11.735Z,30.80
2024-03-12T22:02:39.216Z,32.00
2024-03-12T22:05:08.378Z,30.65
2024-03-12T22:07:38.133Z,32.58
2024-03-12T22:10:06.096Z,30.10
2024-03-12T22:12:32.618Z,31.63
2024-03-12T22:14:59.053Z,30.52
2024-03-12T22:17:25.568Z,30.90
2024-03-12T22:19:52.031Z,32.33
2024-03-12T22:22:18.532Z,30.98
2024-03-12T22:24:45.080Z,31.75
2024-03-12T22:27:11.553Z,31.85
2024-03-12T22:29:39.750Z,31.38
2024-03-12T22:32:08.219Z,31.33
2024-03-12T22:34:34.871Z,30.60
2024-03-12T22:37:02.270Z,30.02
2024-03-12T22:39:28.850Z,31.17
2024-03-12T22:41:56.514Z,29.23
2024-03-12T22:44:22.988Z,31.60
2024-03-12T22:46:49.675Z,31.23
2024-03-12T22:49:17.090Z,29.88
2024-03-12T22:51:44.112Z,31.00
2024-03-12T22:54:11.290Z,30.60
2024-03-12T22:56:37.854Z,29.42
2024-03-12T22:59:05.108Z,30.08
2024-03-12T23:01:32.127Z,29.75
2024-03-12T23:03:58.817Z,29.52
2024-03-12T23:06:26.192Z,26.95
2024-03-12T23:08:53.323Z,28.13
2024-03-12T23:11:22.317Z,28.27
2024-03-12T23:13:48.813Z,27.38
2024-03-12T23:16:16.149Z,27.48
2024-03-12T23:18:43.108Z,28.52
2024-03-12T23:21:11.360Z,27.63
2024-03-12T23:23:38.811Z,27.20
2024-03-12T23:26:05.653Z,29.63
2024-03-12T23:28:32.087Z,29.45
2024-03-12T23:30:58.931Z,28.65
2024-03-12T23:33:26.193Z,29.45
2024-03-12T23:35:52.811Z,29.83
2024-03-12T23:38:19.942Z,30.38
2024-03-12T23:40:46.358Z,30.90
2024-03-12T23:43:12.811Z,28.98
2024-03-12T23:45:39.458Z,29.00
2024-03-12T23:48:06.981Z,30.40
2024-03-12T23:50:34.674Z,29.60
2024-03-12T23:53:03.236Z,30.75
2024-03-12T23:55:29.847Z,29.20
2024-03-12T23:57:56.468Z,29.40
